createdAt,value
2023-05-05T00:00:05.386Z,1060.00
2023-05-05T00:01:05.370Z,1060.00
2023-05-05T00:02:05.405Z,1060.00
2023-05-05T00:03:05.454Z,1060.00
2023-05-05T00:04:05.583Z,1060.00
2023-05-05T00:05:05.500Z,1056.00
2023-05-05T00:06:05.636Z,1055.00
2023-05-05T00:07:05.566Z,1057.00
2023-05-05T00:08:05.596Z,1056.00
2023-05-05T00:09:05.706Z,1055.00
2023-05-05T00:10:05.768Z,1052.00
2023-05-05T00:11:05.707Z,1052.00
2023-05-05T00:12:05.739Z,1048.00
2023-05-05T00:13:05.833Z,1046.00
2023-05-05T00:14:05.813Z,1045.00
2023-05-05T00:15:05.842Z,1045.00
2023-05-05T00:16:06.002Z,1044.00
2023-05-05T00:17:05.977Z,1044.00
2023-05-05T00:18:06.495Z,1042.00
2023-05-05T00:19:06.067Z,1039.00
2023-05-05T00:20:06.174Z,1039.00
2023-05-05T00:21:06.061Z,1039.00
2023-05-05T00:22:06.100Z,1041.00
2023-05-05T00:23:06.147Z,1043.00
2023-05-05T00:24:06.198Z,1040.00
2023-05-05T00:25:06.224Z,1041.00
2023-05-05T00:26:06.319Z,1041.00
2023-05-05T00:27:06.269Z,1039.00
2023-05-05T00:28:06.298Z,1039.00
2023-05-05T00:29:06.332Z,1035.00
2023-05-05T00:30:06.514Z,1035.00
2023-05-05T00:31:06.457Z,1038.00
2023-05-05T00:32:06.952Z,1038.00
2023-05-05T00:33:06.488Z,1038.00
2023-05-05T00:34:06.526Z,1039.00
2023-05-05T00:35:07.464Z,1039.00
2023-05-05T00:36:06.971Z,1038.00
2023-05-05T00:37:06.631Z,1035.00
2023-05-05T00:38:06.664Z,1031.00
2023-05-05T00:39:06.829Z,1030.00
2023-05-05T00:40:06.984Z,1031.00
2023-05-05T00:41:06.789Z,1031.00
2023-05-05T00:42:06.826Z,1032.00
2023-05-05T00:43:06.843Z,1033.00
2023-05-05T00:44:06.901Z,1034.00
2023-05-05T00:45:06.927Z,1032.00
2023-05-05T00:46:07.060Z,1033.00
2023-05-05T00:47:07.007Z,1032.00
2023-05-05T00:48:07.050Z,1032.00
2023-05-05T00:49:07.091Z,1029.00
2023-05-05T00:50:07.420Z,1029.00
2023-05-05T00:51:07.146Z,1029.00
2023-05-05T00:52:07.186Z,1031.00
2023-05-05T00:53:07.212Z,1030.00
2023-05-05T00:54:07.322Z,1031.00
2023-05-05T00:55:07.283Z,1033.00
2023-05-05T00:56:07.404Z,1031.00
2023-05-05T00:57:07.355Z,1029.00
2023-05-05T00:58:07.391Z,1030.00
2023-05-05T00:59:07.431Z,1031.00
2023-05-05T01:00:07.594Z,1032.00
2023-05-05T01:01:07.691Z,1033.00
2023-05-05T01:02:07.545Z,1033.00
2023-05-05T01:03:07.640Z,1032.00
2023-05-05T01:04:07.720Z,1032.00
2023-05-05T01:05:07.631Z,1032.00
2023-05-05T01:06:07.668Z,1030.00
2023-05-05T01:07:07.688Z,1032.00
2023-05-05T01:08:07.792Z,1033.00
2023-05-05T01:09:07.752Z,1030.00
2023-05-05T01:10:18.876Z,1030.00
2023-05-05T01:11:08.838Z,1030.00
2023-05-05T01:12:07.739Z,1029.00
2023-05-05T01:13:07.753Z,1031.00
2023-05-05T01:14:07.704Z,1033.00
2023-05-05T01:15:07.672Z,1031.00
2023-05-05T01:16:07.674Z,1031.00
2023-05-05T01:17:07.593Z,1027.00
2023-05-05T01:18:07.707Z,1025.00
2023-05-05T01:19:07.536Z,1024.00
2023-05-05T01:20:07.843Z,1020.00
2023-05-05T01:21:07.578Z,1018.00
2023-05-05T01:22:07.608Z,1018.00
2023-05-05T01:23:07.627Z,1016.00
2023-05-05T01:24:07.666Z,1014.00
2023-05-05T01:25:07.658Z,1014.00
2023-05-05T01:26:07.687Z,1016.00
2023-05-05T01:27:07.684Z,1018.00
2023-05-05T01:28:07.701Z,1021.00
2023-05-05T01:29:07.705Z,1021.00
2023-05-05T01:30:07.920Z,1022.00
2023-05-05T01:31:07.728Z,1024.00
2023-05-05T01:32:07.718Z,1024.00
2023-05-05T01:33:07.724Z,1026.00
2023-05-05T01:34:07.773Z,1028.00
2023-05-05T01:35:07.762Z,1031.00
2023-05-05T01:36:07.789Z,1031.00
2023-05-05T01:37:07.809Z,1028.00
2023-05-05T01:38:07.838Z,1027.00
2023-05-05T01:39:07.854Z,1026.00
2023-05-05T01:40:08.149Z,1025.00
2023-05-05T01:41:07.908Z,1022.00
2023-05-05T01:42:07.932Z,1024.00
2023-05-05T01:43:08.054Z,1021.00
2023-05-05T01:44:07.998Z,1021.00
2023-05-05T01:45:08.007Z,1019.00
2023-05-05T01:46:08.563Z,1021.00
2023-05-05T01:47:08.089Z,1019.00
2023-05-05T01:48:08.128Z,1019.00
2023-05-05T01:49:08.161Z,1017.00
2023-05-05T01:50:08.437Z,1016.00
2023-05-05T01:51:08.231Z,1018.00
2023-05-05T01:52:08.270Z,1020.00
2023-05-05T01:53:08.310Z,1019.00
2023-05-05T01:54:08.336Z,1018.00
2023-05-05T01:55:08.390Z,1016.00
2023-05-05T01:56:08.443Z,1012.00
2023-05-05T01:57:08.463Z,1009.00
2023-05-05T01:58:08.489Z,1008.00
2023-05-05T01:59:08.539Z,1006.00
2023-05-05T02:00:08.770Z,1008.00
2023-05-05T02:01:08.639Z,1010.00
2023-05-05T02:02:08.611Z,1012.00
2023-05-05T02:03:08.703Z,1013.00
2023-05-05T02:04:08.651Z,1011.00
2023-05-05T02:05:08.674Z,1012.00
2023-05-05T02:06:08.725Z,1013.00
2023-05-05T02:07:08.775Z,1010.00
2023-05-05T02:08:08.786Z,1007.00
2023-05-05T02:09:08.814Z,1007.00
2023-05-05T02:10:09.069Z,1007.00
2023-05-05T02:11:08.889Z,1005.00
2023-05-05T02:12:08.927Z,1004.00
2023-05-05T02:13:09.082Z,1002.00
2023-05-05T02:14:09.046Z,1001.00
2023-05-05T02:15:09.023Z,1002.00
2023-05-05T02:16:09.115Z,1002.00
2023-05-05T02:17:09.079Z,1001.00
2023-05-05T02:18:09.113Z,1005.00
2023-05-05T02:19:09.143Z,1006.00
2023-05-05T02:20:09.304Z,1005.00
2023-05-05T02:21:09.215Z,1006.00
2023-05-05T02:22:09.265Z,1007.00
2023-05-05T02:23:09.301Z,1003.00
2023-05-05T02:24:09.995Z,1004.00
2023-05-05T02:25:09.359Z,1005.00
2023-05-05T02:26:09.351Z,1006.00
2023-05-05T02:27:09.375Z,1005.00
2023-05-05T02:28:09.457Z,1008.00
2023-05-05T02:29:09.417Z,1009.00
2023-05-05T02:30:09.734Z,1008.00
2023-05-05T02:31:09.551Z,1006.00
2023-05-05T02:32:09.480Z,1009.00
2023-05-05T02:33:09.531Z,1008.00
2023-05-05T02:34:09.525Z,1005.00
2023-05-05T02:35:09.519Z,1005.00
2023-05-05T02:36:09.532Z,1005.00
2023-05-05T02:37:09.521Z,1004.00
2023-05-05T02:38:09.556Z,1004.00
2023-05-05T02:39:09.588Z,1003.00
2023-05-05T02:40:09.798Z,1003.00
2023-05-05T02:41:09.647Z,1005.00
2023-05-05T02:42:09.650Z,1003.00
2023-05-05T02:43:09.711Z,1003.00
2023-05-05T02:44:09.720Z,1001.00
2023-05-05T02:45:09.785Z,1001.00
2023-05-05T02:46:09.763Z,1003.00
2023-05-05T02:47:09.794Z,1005.00
2023-05-05T02:48:09.816Z,1004.00
2023-05-05T02:49:09.854Z,1003.00
2023-05-05T02:50:10.191Z,1001.00
2023-05-05T02:51:09.924Z,1003.00
2023-05-05T02:52:09.947Z,1003.00
2023-05-05T02:53:10.034Z,1001.00
2023-05-05T02:54:10.010Z,1004.00
2023-05-05T02:55:10.041Z,1005.00
2023-05-05T02:56:10.065Z,1008.00
2023-05-05T02:57:11.014Z,1007.00
2023-05-05T02:58:10.100Z,1008.00
2023-05-05T02:59:10.137Z,1008.00
2023-05-05T03:00:10.291Z,1006.00
2023-05-05T03:01:10.158Z,1005.00
2023-05-05T03:02:10.156Z,1004.00
2023-05-05T03:03:10.262Z,1001.00
2023-05-05T03:04:10.197Z,997.00
2023-05-05T03:05:10.211Z,994.00
2023-05-05T03:06:10.232Z,991.00
2023-05-05T03:07:10.250Z,992.00
2023-05-05T03:08:10.297Z,993.00
2023-05-05T03:09:10.294Z,997.00
2023-05-05T03:10:10.400Z,1000.00
2023-05-05T03:11:10.334Z,1002.00
2023-05-05T03:12:10.351Z,1003.00
2023-05-05T03:13:10.659Z,1003.00
2023-05-05T03:14:11.017Z,1003.00
2023-05-05T03:15:10.447Z,1003.00
2023-05-05T03:16:10.535Z,1001.00
2023-05-05T03:17:11.524Z,997.00
2023-05-05T03:18:10.578Z,995.00
2023-05-05T03:19:10.609Z,995.00
2023-05-05T03:20:10.650Z,995.00
2023-05-05T03:21:10.687Z,996.00
2023-05-05T03:22:10.731Z,997.00
2023-05-05T03:23:10.731Z,993.00
2023-05-05T03:24:10.772Z,990.00
2023-05-05T03:25:11.021Z,989.00
2023-05-05T03:26:10.937Z,988.00
2023-05-05T03:27:10.872Z,986.00
2023-05-05T03:28:10.900Z,982.00
2023-05-05T03:29:10.913Z,984.00
2023-05-05T03:30:11.005Z,984.00
2023-05-05T03:31:10.985Z,986.00
2023-05-05T03:32:11.017Z,986.00
2023-05-05T03:33:10.995Z,986.00
2023-05-05T03:34:11.040Z,986.00
2023-05-05T03:35:11.034Z,985.00
2023-05-05T03:36:12.021Z,986.00
2023-05-05T03:37:11.023Z,985.00
2023-05-05T03:38:11.083Z,985.00
2023-05-05T03:39:11.016Z,981.00
2023-05-05T03:40:11.522Z,983.00
2023-05-05T03:41:10.978Z,984.00
2023-05-05T03:42:10.964Z,984.00
2023-05-05T03:43:10.966Z,985.00
2023-05-05T03:44:10.952Z,985.00
2023-05-05T03:45:10.931Z,981.00
2023-05-05T03:46:10.944Z,980.00
2023-05-05T03:47:10.870Z,981.00
2023-05-05T03:48:10.857Z,980.00
2023-05-05T03:49:10.832Z,983.00
2023-05-05T03:50:10.781Z,983.00
2023-05-05T03:51:10.759Z,982.00
2023-05-05T03:52:11.740Z,980.00
2023-05-05T03:53:10.720Z,981.00
2023-05-05T03:54:10.666Z,978.00
2023-05-05T03:55:10.663Z,975.00
2023-05-05T03:56:10.639Z,974.00
2023-05-05T03:57:10.696Z,974.00
2023-05-05T03:58:10.573Z,973.00
2023-05-05T03:59:10.605Z,970.00
2023-05-05T04:00:10.546Z,969.00
2023-05-05T04:01:10.482Z,964.00
2023-05-05T04:02:10.471Z,966.00
2023-05-05T04:03:10.769Z,966.00
2023-05-05T04:04:10.405Z,966.00
2023-05-05T04:05:10.343Z,968.00
2023-05-05T04:06:10.534Z,970.00
2023-05-05T04:07:10.276Z,972.00
2023-05-05T04:08:10.243Z,972.00
2023-05-05T04:09:10.269Z,971.00
2023-05-05T04:10:10.284Z,970.00
2023-05-05T04:11:10.146Z,972.00
2023-05-05T04:12:10.112Z,971.00
2023-05-05T04:13:10.107Z,970.00
2023-05-05T04:14:10.059Z,968.00
2023-05-05T04:15:10.030Z,969.00
2023-05-05T04:16:10.014Z,967.00
2023-05-05T04:17:09.949Z,969.00
2023-05-05T04:18:10.076Z,968.00
2023-05-05T04:19:09.902Z,968.00
2023-05-05T04:20:10.143Z,969.00
2023-05-05T04:21:09.829Z,968.00
2023-05-05T04:22:09.795Z,966.00
2023-05-05T04:23:09.793Z,964.00
2023-05-05T04:24:09.798Z,965.00
2023-05-05T04:25:09.759Z,965.00
2023-05-05T04:26:09.727Z,967.00
2023-05-05T04:27:09.706Z,968.00
2023-05-05T04:28:09.661Z,971.00
2023-05-05T04:29:09.615Z,972.00
2023-05-05T04:30:09.732Z,971.00
2023-05-05T04:31:09.582Z,969.00
2023-05-05T04:32:09.524Z,967.00
2023-05-05T04:33:09.498Z,966.00
2023-05-05T04:34:09.474Z,968.00
2023-05-05T04:35:09.437Z,968.00
2023-05-05T04:36:09.404Z,967.00
2023-05-05T04:37:09.383Z,965.00
2023-05-05T04:38:09.552Z,964.00
2023-05-05T04:39:09.316Z,962.00
2023-05-05T04:40:09.564Z,962.00
2023-05-05T04:41:09.278Z,961.00
2023-05-05T04:42:09.220Z,962.00
2023-05-05T04:43:09.190Z,960.00
2023-05-05T04:44:10.062Z,959.00
2023-05-05T04:45:09.182Z,956.00
2023-05-05T04:46:09.114Z,952.00
2023-05-05T04:47:09.072Z,953.00
2023-05-05T04:48:09.048Z,956.00
2023-05-05T04:49:08.997Z,955.00
2023-05-05T04:50:09.175Z,956.00
2023-05-05T04:51:08.956Z,955.00
2023-05-05T04:52:08.915Z,958.00
2023-05-05T04:53:08.902Z,956.00
2023-05-05T04:54:08.859Z,954.00
2023-05-05T04:55:08.851Z,955.00
2023-05-05T04:56:08.859Z,954.00
2023-05-05T04:57:09.553Z,956.00
2023-05-05T04:58:08.771Z,957.00
2023-05-05T04:59:08.771Z,954.00
2023-05-05T05:00:09.003Z,954.00
2023-05-05T05:01:08.694Z,954.00
2023-05-05T05:02:08.697Z,953.00
2023-05-05T05:03:08.779Z,955.00
2023-05-05T05:04:08.621Z,955.00
2023-05-05T05:05:08.692Z,955.00
2023-05-05T05:06:08.613Z,952.00
2023-05-05T05:07:08.601Z,951.00
2023-05-05T05:08:08.604Z,951.00
2023-05-05T05:09:08.563Z,951.00
2023-05-05T05:10:08.720Z,950.00
2023-05-05T05:11:08.547Z,950.00
2023-05-05T05:12:08.513Z,949.00
2023-05-05T05:13:09.632Z,950.00
2023-05-05T05:14:08.472Z,946.00
2023-05-05T05:15:08.477Z,945.00
2023-05-05T05:16:08.421Z,944.00
2023-05-05T05:17:08.360Z,944.00
2023-05-05T05:18:08.350Z,926.00
2023-05-05T05:19:08.281Z,828.00
2023-05-05T05:20:08.477Z,839.00
2023-05-05T05:21:08.222Z,861.00
2023-05-05T05:22:08.196Z,881.00
2023-05-05T05:23:08.152Z,867.00
2023-05-05T05:24:08.178Z,881.00
2023-05-05T05:25:08.111Z,977.00
2023-05-05T05:26:08.064Z,975.00
2023-05-05T05:27:09.838Z,964.00
2023-05-05T05:28:10.741Z,974.00
2023-05-05T05:29:08.033Z,1023.00
2023-05-05T05:30:08.078Z,1019.00
2023-05-05T05:31:08.563Z,996.00
2023-05-05T05:32:07.952Z,1001.00
2023-05-05T05:33:07.929Z,1027.00
2023-05-05T05:34:09.366Z,908.00
2023-05-05T05:35:07.826Z,880.00
2023-05-05T05:36:07.816Z,751.00
2023-05-05T05:37:07.796Z,741.00
2023-05-05T05:38:07.765Z,750.00
2023-05-05T05:39:07.751Z,739.00
2023-05-05T05:40:07.938Z,731.00
2023-05-05T05:41:07.727Z,726.00
2023-05-05T05:42:07.708Z,723.00
2023-05-05T05:43:07.708Z,715.00
2023-05-05T05:44:07.693Z,707.00
2023-05-05T05:45:07.683Z,699.00
2023-05-05T05:46:09.382Z,688.00
2023-05-05T05:47:07.650Z,682.00
2023-05-05T05:48:07.652Z,683.00
2023-05-05T05:49:07.667Z,681.00
2023-05-05T05:50:07.892Z,678.00
2023-05-05T05:51:07.597Z,677.00
2023-05-05T05:52:07.571Z,680.00
2023-05-05T05:53:07.542Z,685.00
2023-05-05T05:54:07.523Z,687.00
2023-05-05T05:55:07.522Z,686.00
2023-05-05T05:56:07.496Z,688.00
2023-05-05T05:57:07.515Z,689.00
2023-05-05T05:58:07.531Z,693.00
2023-05-05T05:59:07.575Z,696.00
2023-05-05T06:00:07.966Z,697.00
2023-05-05T06:01:07.647Z,688.00
2023-05-05T06:02:07.750Z,684.00
2023-05-05T06:03:08.040Z,674.00
2023-05-05T06:04:07.970Z,672.00
2023-05-05T06:05:07.814Z,674.00
2023-05-05T06:06:07.875Z,675.00
2023-05-05T06:07:07.974Z,663.00
2023-05-05T06:08:07.967Z,659.00
2023-05-05T06:09:08.001Z,652.00
2023-05-05T06:10:22.816Z,630.00
2023-05-05T06:11:09.031Z,638.00
2023-05-05T06:12:08.014Z,636.00
2023-05-05T06:13:08.097Z,634.00
2023-05-05T06:14:07.984Z,641.00
2023-05-05T06:15:07.961Z,647.00
2023-05-05T06:16:08.014Z,652.00
2023-05-05T06:17:07.921Z,650.00
2023-05-05T06:18:07.918Z,649.00
2023-05-05T06:19:07.917Z,652.00
2023-05-05T06:20:08.079Z,650.00
2023-05-05T06:21:08.067Z,649.00
2023-05-05T06:22:08.041Z,653.00
2023-05-05T06:23:08.105Z,669.00
2023-05-05T06:24:08.094Z,693.00
2023-05-05T06:25:08.178Z,713.00
2023-05-05T06:26:08.170Z,709.00
2023-05-05T06:27:08.582Z,722.00
2023-05-05T06:28:08.217Z,756.00
2023-05-05T06:29:09.134Z,769.00
2023-05-05T06:30:08.506Z,775.00
2023-05-05T06:31:08.238Z,787.00
2023-05-05T06:32:08.236Z,811.00
2023-05-05T06:33:08.266Z,826.00
2023-05-05T06:34:08.162Z,877.00
2023-05-05T06:35:08.137Z,959.00
2023-05-05T06:36:08.110Z,1061.00
2023-05-05T06:37:08.064Z,1061.00
2023-05-05T06:38:08.056Z,1072.00
2023-05-05T06:39:08.100Z,1119.00
2023-05-05T06:40:08.314Z,1163.00
2023-05-05T06:41:08.179Z,1187.00
2023-05-05T06:42:08.202Z,1232.00
2023-05-05T06:43:08.230Z,1273.00
2023-05-05T06:44:08.261Z,1301.00
2023-05-05T06:45:08.277Z,1316.00
2023-05-05T06:46:08.318Z,1340.00
2023-05-05T06:47:08.358Z,1373.00
2023-05-05T06:48:08.445Z,1410.00
2023-05-05T06:49:08.322Z,1434.00
2023-05-05T06:50:08.508Z,1468.00
2023-05-05T06:51:08.353Z,1486.00
2023-05-05T06:52:08.391Z,1506.00
2023-05-05T06:53:08.413Z,1524.00
2023-05-05T06:54:08.392Z,1567.00
2023-05-05T06:55:08.338Z,1595.00
2023-05-05T06:56:08.330Z,1621.00
2023-05-05T06:57:08.313Z,1659.00
2023-05-05T06:58:08.330Z,1687.00
2023-05-05T06:59:08.280Z,1709.00
2023-05-05T07:00:08.445Z,1741.00
2023-05-05T07:01:08.268Z,1784.00
2023-05-05T07:02:08.229Z,1808.00
2023-05-05T07:03:08.214Z,1826.00
2023-05-05T07:04:08.221Z,1849.00
2023-05-05T07:05:08.153Z,1914.00
2023-05-05T07:06:08.151Z,1938.00
2023-05-05T07:07:08.084Z,1947.00
2023-05-05T07:08:08.036Z,1974.00
2023-05-05T07:09:08.240Z,1997.00
2023-05-05T07:10:08.030Z,2027.00
2023-05-05T07:11:08.149Z,2056.00
2023-05-05T07:12:07.927Z,2093.00
2023-05-05T07:13:07.940Z,2125.00
2023-05-05T07:14:07.844Z,2157.00
2023-05-05T07:15:23.466Z,2173.00
2023-05-05T07:16:08.777Z,2189.00
2023-05-05T07:17:07.710Z,2214.00
2023-05-05T07:18:07.699Z,2241.00
2023-05-05T07:19:07.632Z,2244.00
2023-05-05T07:20:07.925Z,2024.00
2023-05-05T07:21:07.537Z,2063.00
2023-05-05T07:22:07.493Z,1887.00
2023-05-05T07:23:07.449Z,2060.00
2023-05-05T07:24:07.410Z,2085.00
2023-05-05T07:25:07.449Z,2097.00
2023-05-05T07:26:07.397Z,2110.00
2023-05-05T07:27:07.361Z,2125.00
2023-05-05T07:28:07.269Z,2147.00
2023-05-05T07:29:07.614Z,2191.00
2023-05-05T07:30:12.387Z,2229.00
2023-05-05T07:31:08.131Z,2256.00
2023-05-05T07:32:07.132Z,2304.00
2023-05-05T07:33:07.123Z,2333.00
2023-05-05T07:34:07.020Z,2365.00
2023-05-05T07:35:06.965Z,2431.00
2023-05-05T07:36:06.937Z,2462.00
2023-05-05T07:37:06.878Z,2479.00
2023-05-05T07:38:07.717Z,2517.00
2023-05-05T07:39:06.811Z,2562.00
2023-05-05T07:40:07.148Z,2599.00
2023-05-05T07:41:06.814Z,2622.00
2023-05-05T07:42:06.675Z,2646.00
2023-05-05T07:43:06.633Z,2679.00
2023-05-05T07:44:06.581Z,2712.00
2023-05-05T07:45:06.598Z,2740.00
2023-05-05T07:46:06.533Z,2758.00
2023-05-05T07:47:06.452Z,2785.00
2023-05-05T07:48:07.169Z,2836.00
2023-05-05T07:49:06.357Z,2861.00
2023-05-05T07:50:06.703Z,2892.00
2023-05-05T07:51:06.267Z,2919.00
2023-05-05T07:52:06.236Z,2943.00
2023-05-05T07:53:14.471Z,2995.00
2023-05-05T07:54:07.130Z,3023.00
2023-05-05T07:55:06.088Z,3043.00
2023-05-05T07:56:06.042Z,3065.00
2023-05-05T07:57:06.128Z,3092.00
2023-05-05T07:58:05.950Z,3118.00
2023-05-05T07:59:05.930Z,3156.00
2023-05-05T08:00:06.049Z,3189.00
2023-05-05T08:01:06.572Z,3235.00
2023-05-05T08:02:05.888Z,3262.00
2023-05-05T08:03:07.054Z,3294.00
2023-05-05T08:04:06.234Z,3315.00
2023-05-05T08:05:06.099Z,3335.00
2023-05-05T08:06:05.874Z,3417.00
2023-05-05T08:07:05.873Z,3430.00
2023-05-05T08:08:05.883Z,3459.00
2023-05-05T08:09:05.852Z,3485.00
2023-05-05T08:10:05.867Z,3513.00
2023-05-05T08:11:05.921Z,3604.00
2023-05-05T08:12:05.858Z,3658.00
2023-05-05T08:13:05.949Z,3660.00
2023-05-05T08:14:05.838Z,3535.00
2023-05-05T08:15:06.013Z,3523.00
2023-05-05T08:16:05.949Z,2837.00
2023-05-05T08:17:05.802Z,2629.00
2023-05-05T08:18:05.867Z,2308.00
2023-05-05T08:19:14.508Z,2226.00
2023-05-05T08:20:06.769Z,2110.00
2023-05-05T08:21:05.723Z,2145.00
2023-05-05T08:22:05.676Z,2280.00
2023-05-05T08:23:05.649Z,2298.00
2023-05-05T08:24:05.600Z,2299.00
2023-05-05T08:25:05.642Z,2291.00
2023-05-05T08:26:05.518Z,2289.00
2023-05-05T08:27:05.478Z,2286.00
2023-05-05T08:28:06.135Z,2285.00
2023-05-05T08:29:05.536Z,2282.00
2023-05-05T08:30:05.496Z,2284.00
2023-05-05T08:31:05.603Z,2287.00
2023-05-05T08:32:05.544Z,2292.00
2023-05-05T08:33:05.624Z,2294.00
2023-05-05T08:34:05.643Z,2294.00
2023-05-05T08:35:05.744Z,2290.00
2023-05-05T08:36:06.637Z,2287.00
2023-05-05T08:37:05.679Z,2280.00
2023-05-05T08:38:05.736Z,2276.00
2023-05-05T08:39:05.747Z,2276.00
2023-05-05T08:40:05.843Z,2274.00
2023-05-05T08:41:05.799Z,2269.00
2023-05-05T08:42:06.158Z,2270.00
2023-05-05T08:43:05.854Z,2270.00
2023-05-05T08:44:05.868Z,2271.00
2023-05-05T08:45:06.278Z,2268.00
2023-05-05T08:46:05.853Z,2267.00
2023-05-05T08:47:05.979Z,2265.00
2023-05-05T08:48:05.838Z,2268.00
2023-05-05T08:49:05.775Z,2267.00
2023-05-05T08:50:05.731Z,2264.00
2023-05-05T08:51:05.815Z,2263.00
2023-05-05T08:52:05.693Z,2259.00
2023-05-05T08:53:05.712Z,2258.00
2023-05-05T08:54:05.657Z,2255.00
2023-05-05T08:55:05.721Z,2249.00
2023-05-05T08:56:05.603Z,2249.00
2023-05-05T08:57:05.573Z,2249.00
2023-05-05T08:58:05.548Z,2249.00
2023-05-05T08:59:05.520Z,2249.00
2023-05-05T09:00:05.508Z,2246.00
2023-05-05T09:01:05.654Z,2244.00
2023-05-05T09:02:06.174Z,2240.00
2023-05-05T09:03:05.566Z,2238.00
2023-05-05T09:04:05.427Z,2238.00
2023-05-05T09:05:05.528Z,2242.00
2023-05-05T09:06:05.345Z,2241.00
2023-05-05T09:07:05.343Z,2238.00
2023-05-05T09:08:05.281Z,2242.00
2023-05-05T09:09:06.138Z,2237.00
2023-05-05T09:10:05.220Z,2234.00
2023-05-05T09:11:05.171Z,2235.00
2023-05-05T09:12:05.147Z,2234.00
2023-05-05T09:13:05.160Z,2230.00
2023-05-05T09:14:05.058Z,2229.00
2023-05-05T09:15:05.337Z,2229.00
2023-05-05T09:16:04.994Z,2229.00
2023-05-05T09:17:05.105Z,2226.00
2023-05-05T09:18:05.000Z,2225.00
2023-05-05T09:19:04.908Z,2230.00
2023-05-05T09:20:04.910Z,2011.00
2023-05-05T09:21:04.825Z,1757.00
2023-05-05T09:22:04.905Z,1918.00
2023-05-05T09:23:04.777Z,1988.00
2023-05-05T09:24:08.177Z,1998.00
2023-05-05T09:25:04.794Z,1994.00
2023-05-05T09:26:04.680Z,1996.00
2023-05-05T09:27:04.633Z,1994.00
2023-05-05T09:28:05.174Z,1994.00
2023-05-05T09:29:04.607Z,1990.00
2023-05-05T09:30:04.519Z,2002.00
2023-05-05T09:31:04.501Z,2007.00
2023-05-05T09:32:04.441Z,2020.00
2023-05-05T09:33:04.528Z,2029.00
2023-05-05T09:34:04.402Z,1920.00
2023-05-05T09:35:04.353Z,1899.00
2023-05-05T09:36:04.289Z,1901.00
2023-05-05T09:37:04.267Z,1939.00
2023-05-05T09:38:04.237Z,1933.00
2023-05-05T09:39:04.173Z,1943.00
2023-05-05T09:40:04.137Z,1944.00
2023-05-05T09:41:04.131Z,1936.00
2023-05-05T09:42:04.170Z,1913.00
2023-05-05T09:43:04.047Z,1909.00
2023-05-05T09:44:04.043Z,1893.00
2023-05-05T09:45:04.137Z,1888.00
2023-05-05T09:46:05.108Z,1860.00
2023-05-05T09:47:09.341Z,1860.00
2023-05-05T09:48:05.133Z,1873.00
2023-05-05T09:49:04.164Z,1893.00
2023-05-05T09:50:04.009Z,1880.00
2023-05-05T09:51:04.651Z,1808.00
2023-05-05T09:52:03.926Z,1817.00
2023-05-05T09:53:03.917Z,1922.00
2023-05-05T09:54:03.842Z,1935.00
2023-05-05T09:55:03.809Z,1917.00
2023-05-05T09:56:03.877Z,1902.00
2023-05-05T09:57:03.805Z,1873.00
2023-05-05T09:58:04.610Z,1837.00
2023-05-05T09:59:03.844Z,1826.00
2023-05-05T10:00:04.008Z,1812.00
2023-05-05T10:01:03.872Z,1816.00
2023-05-05T10:02:03.896Z,1853.00
2023-05-05T10:03:04.229Z,1877.00
2023-05-05T10:04:03.930Z,1893.00
2023-05-05T10:05:04.912Z,1884.00
2023-05-05T10:06:04.586Z,1803.00
2023-05-05T10:07:04.760Z,1817.00
2023-05-05T10:08:04.027Z,1882.00
2023-05-05T10:09:03.992Z,1858.00
2023-05-05T10:10:04.009Z,1909.00
2023-05-05T10:11:04.043Z,1953.00
2023-05-05T10:12:04.035Z,1954.00
2023-05-05T10:13:04.134Z,2001.00
2023-05-05T10:14:04.098Z,2010.00
2023-05-05T10:15:04.023Z,2007.00
2023-05-05T10:16:04.046Z,2009.00
2023-05-05T10:17:04.654Z,1885.00
2023-05-05T10:18:07.799Z,1872.00
2023-05-05T10:19:03.971Z,1876.00
2023-05-05T10:20:03.934Z,1871.00
2023-05-05T10:21:04.027Z,1893.00
2023-05-05T10:22:03.844Z,1914.00
2023-05-05T10:23:03.815Z,1975.00
2023-05-05T10:24:03.827Z,2005.00
2023-05-05T10:25:03.728Z,2046.00
2023-05-05T10:26:03.677Z,2082.00
2023-05-05T10:27:03.632Z,2098.00
2023-05-05T10:28:03.590Z,2089.00
2023-05-05T10:29:03.558Z,2105.00
2023-05-05T10:30:03.525Z,2124.00
2023-05-05T10:31:07.825Z,2159.00
2023-05-05T10:32:16.304Z,2184.00
2023-05-05T10:33:18.226Z,2215.00
2023-05-05T10:34:05.474Z,2203.00
2023-05-05T10:35:03.298Z,2228.00
2023-05-05T10:36:03.289Z,2232.00
2023-05-05T10:37:03.324Z,2239.00
2023-05-05T10:38:03.172Z,2258.00
2023-05-05T10:39:03.171Z,2260.00
2023-05-05T10:40:03.196Z,2237.00
2023-05-05T10:41:03.052Z,2184.00
2023-05-05T10:42:03.676Z,2177.00
2023-05-05T10:43:02.963Z,2220.00
2023-05-05T10:44:04.594Z,2237.00
2023-05-05T10:45:03.622Z,2270.00
2023-05-05T10:46:02.962Z,2292.00
2023-05-05T10:47:02.807Z,2355.00
2023-05-05T10:48:02.863Z,2365.00
2023-05-05T10:49:02.739Z,2383.00
2023-05-05T10:50:02.693Z,2128.00
2023-05-05T10:51:02.668Z,2296.00
2023-05-05T10:52:02.709Z,2336.00
2023-05-05T10:53:02.629Z,2284.00
2023-05-05T10:54:02.597Z,2350.00
2023-05-05T10:55:03.173Z,2318.00
2023-05-05T10:56:02.515Z,2279.00
2023-05-05T10:57:02.476Z,2311.00
2023-05-05T10:58:02.446Z,2368.00
2023-05-05T10:59:02.430Z,2285.00
2023-05-05T11:00:02.411Z,2340.00
2023-05-05T11:01:02.447Z,2484.00
2023-05-05T11:02:02.354Z,2502.00
2023-05-05T11:03:02.415Z,2591.00
2023-05-05T11:04:02.407Z,2576.00
2023-05-05T11:05:02.802Z,2467.00
2023-05-05T11:06:02.259Z,2431.00
2023-05-05T11:07:02.237Z,2435.00
2023-05-05T11:08:02.222Z,2443.00
2023-05-05T11:09:02.247Z,2455.00
2023-05-05T11:10:02.149Z,2457.00
2023-05-05T11:11:02.155Z,2459.00
2023-05-05T11:12:02.051Z,2465.00
2023-05-05T11:13:02.083Z,2476.00
2023-05-05T11:14:01.972Z,2483.00
2023-05-05T11:15:01.937Z,2485.00
2023-05-05T11:16:01.909Z,2487.00
2023-05-05T11:17:02.020Z,2489.00
2023-05-05T11:18:04.883Z,2488.00
2023-05-05T11:19:02.691Z,2488.00
2023-05-05T11:20:01.747Z,2492.00
2023-05-05T11:21:01.697Z,2494.00
2023-05-05T11:22:01.731Z,2497.00
2023-05-05T11:23:01.616Z,2495.00
2023-05-05T11:24:01.564Z,2496.00
2023-05-05T11:25:01.565Z,2493.00
2023-05-05T11:26:01.459Z,2495.00
2023-05-05T11:27:01.417Z,2498.00
2023-05-05T11:28:01.388Z,2500.00
2023-05-05T11:29:01.333Z,2500.00
2023-05-05T11:30:01.321Z,2498.00
2023-05-05T11:31:01.375Z,2499.00
2023-05-05T11:32:01.230Z,2499.00
2023-05-05T11:33:01.208Z,2498.00
2023-05-05T11:34:01.109Z,2494.00
2023-05-05T11:35:01.071Z,2493.00
2023-05-05T11:36:01.850Z,2496.00
2023-05-05T11:37:01.006Z,2500.00
2023-05-05T11:38:00.982Z,2502.00
2023-05-05T11:39:00.948Z,2499.00
2023-05-05T11:40:00.939Z,2499.00
2023-05-05T11:41:00.951Z,2502.00
2023-05-05T11:42:03.384Z,2504.00
2023-05-05T11:43:01.840Z,2496.00
2023-05-05T11:44:00.767Z,2493.00
2023-05-05T11:45:01.107Z,2487.00
2023-05-05T11:46:00.730Z,2481.00
2023-05-05T11:47:00.685Z,2481.00
2023-05-05T11:48:01.332Z,2481.00
2023-05-05T11:49:01.193Z,2479.00
2023-05-05T11:50:00.543Z,2476.00
2023-05-05T11:51:00.439Z,2466.00
2023-05-05T11:52:00.494Z,2464.00
2023-05-05T11:53:00.362Z,2463.00
2023-05-05T11:54:00.298Z,2466.00
2023-05-05T11:55:00.338Z,2463.00
2023-05-05T11:56:00.204Z,2464.00
2023-05-05T11:57:00.174Z,2461.00
2023-05-05T11:58:00.126Z,2460.00
2023-05-05T11:59:00.063Z,2462.00
2023-05-05T12:00:00.003Z,2465.00
2023-05-05T12:01:00.028Z,2460.00
2023-05-05T12:01:59.902Z,2455.00
2023-05-05T12:02:59.922Z,2459.00
2023-05-05T12:03:59.927Z,2455.00
2023-05-05T12:04:59.831Z,2455.00
2023-05-05T12:05:59.754Z,2454.00
2023-05-05T12:06:59.669Z,2449.00
2023-05-05T12:07:59.758Z,2449.00
2023-05-05T12:08:59.568Z,2447.00
2023-05-05T12:09:59.514Z,2447.00
2023-05-05T12:10:59.469Z,2445.00